sensor_id;sensor_type;location;lat;lon;timestamp;P1;durP1;ratioP1;P2;durP2;ratioP2
20627;SDS011;10473;42.734;24.258;2022-12-18T00:01:25;59.77;;;9.03;;
20627;SDS011;10473;42.734;24.258;2022-12-18T00:03:55;29.27;;;7.63;;
20627;SDS011;10473;42.734;24.258;2022-12-18T00:06:23;36.00;;;8.70;;
20627;SDS011;10473;42.734;24.258;2022-12-18T00:08:52;24.73;;;8.70;;
20627;SDS011;10473;42.734;24.258;2022-12-18T00:11:21;27.20;;;9.13;;
20627;SDS011;10473;42.734;24.258;2022-12-18T00:13:52;25.23;;;11.20;;
20627;SDS011;10473;42.734;24.258;2022-12-18T00:16:22;15.80;;;9.17;;
20627;SDS011;10473;42.734;24.258;2022-12-18T00:18:52;36.13;;;8.17;;
20627;SDS011;10473;42.734;24.258;2022-12-18T00:21:21;16.17;;;7.97;;
20627;SDS011;10473;42.734;24.258;2022-12-18T00:23:49;17.17;;;9.93;;
20627;SDS011;10473;42.734;24.258;2022-12-18T00:26:18;23.83;;;9.47;;
20627;SDS011;10473;42.734;24.258;2022-12-18T00:28:50;26.83;;;8.37;;
20627;SDS011;10473;42.734;24.258;2022-12-18T00:31:19;29.97;;;8.97;;
20627;SDS011;10473;42.734;24.258;2022-12-18T00:33:48;57.23;;;7.10;;
20627;SDS011;10473;42.734;24.258;2022-12-18T00:36:17;32.93;;;8.20;;
20627;SDS011;10473;42.734;24.258;2022-12-18T00:38:46;28.23;;;9.27;;
20627;SDS011;10473;42.734;24.258;2022-12-18T00:41:17;17.63;;;8.43;;
20627;SDS011;10473;42.734;24.258;2022-12-18T00:44:00;38.83;;;9.63;;
20627;SDS011;10473;42.734;24.258;2022-12-18T00:46:28;19.37;;;7.13;;
20627;SDS011;10473;42.734;24.258;2022-12-18T00:48:56;27.53;;;8.03;;
20627;SDS011;10473;42.734;24.258;2022-12-18T00:51:24;31.50;;;6.80;;
20627;SDS011;10473;42.734;24.258;2022-12-18T00:53:52;32.03;;;8.67;;
20627;SDS011;10473;42.734;24.258;2022-12-18T00:56:20;11.40;;;6.00;;
20627;SDS011;10473;42.734;24.258;2022-12-18T00:58:48;19.27;;;6.93;;
20627;SDS011;10473;42.734;24.258;2022-12-18T01:01:17;31.23;;;7.77;;
20627;SDS011;10473;42.734;24.258;2022-12-18T01:03:45;25.13;;;6.70;;
20627;SDS011;10473;42.734;24.258;2022-12-18T01:06:13;17.10;;;6.47;;
20627;SDS011;10473;42.734;24.258;2022-12-18T01:08:42;33.53;;;6.17;;
20627;SDS011;10473;42.734;24.258;2022-12-18T01:11:12;37.60;;;6.47;;
20627;SDS011;10473;42.734;24.258;2022-12-18T01:13:42;16.80;;;4.53;;
20627;SDS011;10473;42.734;24.258;2022-12-18T01:16:11;69.40;;;5.63;;
20627;SDS011;10473;42.734;24.258;2022-12-18T01:18:41;67.97;;;5.63;;
20627;SDS011;10473;42.734;24.258;2022-12-18T01:21:09;34.80;;;5.50;;
20627;SDS011;10473;42.734;24.258;2022-12-18T01:23:39;27.90;;;6.23;;
20627;SDS011;10473;42.734;24.258;2022-12-18T01:26:07;31.40;;;4.33;;
20627;SDS011;10473;42.734;24.258;2022-12-18T01:28:35;55.20;;;5.97;;
20627;SDS011;10473;42.734;24.258;2022-12-18T01:31:14;55.23;;;7.47;;
20627;SDS011;10473;42.734;24.258;2022-12-18T01:33:47;63.63;;;6.10;;
20627;SDS011;10473;42.734;24.258;2022-12-18T01:36:16;19.57;;;4.97;;
20627;SDS011;10473;42.734;24.258;2022-12-18T01:38:47;32.67;;;4.60;;
20627;SDS011;10473;42.734;24.258;2022-12-18T01:41:15;19.53;;;4.03;;
20627;SDS011;10473;42.734;24.258;2022-12-18T01:43:45;41.87;;;4.67;;
20627;SDS011;10473;42.734;24.258;2022-12-18T01:46:17;40.00;;;4.53;;
20627;SDS011;10473;42.734;24.258;2022-12-18T01:48:47;59.67;;;4.67;;
20627;SDS011;10473;42.734;24.258;2022-12-18T01:51:20;42.50;;;5.90;;
20627;SDS011;10473;42.734;24.258;2022-12-18T01:53:48;43.20;;;5.37;;
20627;SDS011;10473;42.734;24.258;2022-12-18T01:56:16;38.20;;;5.77;;
20627;SDS011;10473;42.734;24.258;2022-12-18T01:58:50;32.87;;;4.87;;
20627;SDS011;10473;42.734;24.258;2022-12-18T02:01:22;24.40;;;5.00;;
20627;SDS011;10473;42.734;24.258;2022-12-18T02:03:52;33.63;;;5.50;;
20627;SDS011;10473;42.734;24.258;2022-12-18T02:06:22;57.20;;;5.87;;
20627;SDS011;10473;42.734;24.258;2022-12-18T02:09:02;37.80;;;5.10;;
20627;SDS011;10473;42.734;24.258;2022-12-18T02:11:39;38.07;;;8.17;;
20627;SDS011;10473;42.734;24.258;2022-12-18T02:14:21;36.00;;;6.97;;
20627;SDS011;10473;42.734;24.258;2022-12-18T02:16:57;27.60;;;7.83;;
20627;SDS011;10473;42.734;24.258;2022-12-18T02:19:41;20.20;;;5.87;;
20627;SDS011;10473;42.734;24.258;2022-12-18T02:22:24;28.20;;;5.30;;
20627;SDS011;10473;42.734;24.258;2022-12-18T02:24:59;20.30;;;5.03;;
20627;SDS011;10473;42.734;24.258;2022-12-18T02:27:35;35.50;;;6.77;;
20627;SDS011;10473;42.734;24.258;2022-12-18T02:30:06;38.83;;;4.90;;
20627;SDS011;10473;42.734;24.258;2022-12-18T02:32:36;23.37;;;5.10;;
20627;SDS011;10473;42.734;24.258;2022-12-18T02:35:09;19.87;;;4.97;;
20627;SDS011;10473;42.734;24.258;2022-12-18T02:37:42;6.40;;;3.80;;
20627;SDS011;10473;42.734;24.258;2022-12-18T02:40:12;24.67;;;5.00;;
20627;SDS011;10473;42.734;24.258;2022-12-18T02:42:44;10.47;;;4.43;;
20627;SDS011;10473;42.734;24.258;2022-12-18T02:45:17;10.37;;;4.90;;
20627;SDS011;10473;42.734;24.258;2022-12-18T02:47:47;26.20;;;5.47;;
20627;SDS011;10473;42.734;24.258;2022-12-18T02:50:18;161.40;;;9.10;;
20627;SDS011;10473;42.734;24.258;2022-12-18T02:52:56;145.47;;;8.70;;
20627;SDS011;10473;42.734;24.258;2022-12-18T02:55:36;87.23;;;7.90;;
20627;SDS011;10473;42.734;24.258;2022-12-18T02:58:17;56.83;;;7.93;;
20627;SDS011;10473;42.734;24.258;2022-12-18T03:00:53;140.33;;;8.70;;
20627;SDS011;10473;42.734;24.258;2022-12-18T03:03:29;61.17;;;7.23;;
20627;SDS011;10473;42.734;24.258;2022-12-18T03:06:02;125.63;;;6.97;;
20627;SDS011;10473;42.734;24.258;2022-12-18T03:08:36;68.27;;;5.63;;
20627;SDS011;10473;42.734;24.258;2022-12-18T03:11:07;87.60;;;7.40;;
20627;SDS011;10473;42.734;24.258;2022-12-18T03:13:40;69.03;;;8.50;;
20627;SDS011;10473;42.734;24.258;2022-12-18T03:16:14;178.43;;;9.50;;
20627;SDS011;10473;42.734;24.258;2022-12-18T03:18:46;212.40;;;9.67;;
20627;SDS011;10473;42.734;24.258;2022-12-18T03:21:18;122.13;;;7.00;;
20627;SDS011;10473;42.734;24.258;2022-12-18T03:23:50;77.20;;;7.23;;
20627;SDS011;10473;42.734;24.258;2022-12-18T03:26:24;115.57;;;7.47;;
20627;SDS011;10473;42.734;24.258;2022-12-18T03:29:01;136.30;;;7.87;;
20627;SDS011;10473;42.734;24.258;2022-12-18T03:31:35;54.73;;;5.80;;
20627;SDS011;10473;42.734;24.258;2022-12-18T03:34:09;128.23;;;8.63;;
20627;SDS011;10473;42.734;24.258;2022-12-18T03:36:43;43.77;;;7.13;;
20627;SDS011;10473;42.734;24.258;2022-12-18T03:39:12;43.13;;;7.00;;
20627;SDS011;10473;42.734;24.258;2022-12-18T03:41:45;135.13;;;7.53;;
20627;SDS011;10473;42.734;24.258;2022-12-18T03:44:39;46.83;;;8.27;;
20627;SDS011;10473;42.734;24.258;2022-12-18T03:47:16;43.83;;;5.90;;
20627;SDS011;10473;42.734;24.258;2022-12-18T03:49:56;58.17;;;5.00;;
20627;SDS011;10473;42.734;24.258;2022-12-18T03:52:35;25.93;;;5.13;;
20627;SDS011;10473;42.734;24.258;2022-12-18T03:55:07;48.53;;;8.60;;
20627;SDS011;10473;42.734;24.258;2022-12-18T03:57:37;52.63;;;5.30;;
20627;SDS011;10473;42.734;24.258;2022-12-18T04:00:10;55.47;;;6.43;;
20627;SDS011;10473;42.734;24.258;2022-12-18T04:02:40;98.07;;;6.97;;
20627;SDS011;10473;42.734;24.258;2022-12-18T04:05:15;22.83;;;5.33;;
20627;SDS011;10473;42.734;24.258;2022-12-18T04:07:44;66.70;;;6.47;;
20627;SDS011;10473;42.734;24.258;2022-12-18T04:10:15;12.00;;;5.67;;
20627;SDS011;10473;42.734;24.258;2022-12-18T04:12:44;36.53;;;8.60;;
20627;SDS011;10473;42.734;24.258;2022-12-18T04:15:15;57.60;;;6.43;;
20627;SDS011;10473;42.734;24.258;2022-12-18T04:17:46;94.23;;;8.57;;
20627;SDS011;10473;42.734;24.258;2022-12-18T04:20:18;94.73;;;6.40;;
20627;SDS011;10473;42.734;24.258;2022-12-18T04:22:47;12.07;;;5.83;;
20627;SDS011;10473;42.734;24.258;2022-12-18T04:25:14;57.10;;;7.67;;
20627;SDS011;10473;42.734;24.258;2022-12-18T04:27:54;25.87;;;6.33;;
20627;SDS011;10473;42.734;24.258;2022-12-18T04:30:23;55.97;;;8.30;;
20627;SDS011;10473;42.734;24.258;2022-12-18T04:32:51;14.73;;;6.70;;
20627;SDS011;10473;42.734;24.258;2022-12-18T04:35:20;38.37;;;8.60;;
20627;SDS011;10473;42.734;24.258;2022-12-18T04:37:49;32.87;;;5.30;;
20627;SDS011;10473;42.734;24.258;2022-12-18T04:40:17;53.47;;;8.20;;
20627;SDS011;10473;42.734;24.258;2022-12-18T04:42:46;90.40;;;6.73;;
20627;SDS011;10473;42.734;24.258;2022-12-18T04:45:14;71.40;;;6.87;;
20627;SDS011;10473;42.734;24.258;2022-12-18T04:47:43;65.43;;;5.87;;
20627;SDS011;10473;42.734;24.258;2022-12-18T04:50:11;76.60;;;11.50;;
20627;SDS011;10473;42.734;24.258;2022-12-18T04:52:38;83.87;;;15.03;;
20627;SDS011;10473;42.734;24.258;2022-12-18T04:55:06;60.07;;;9.73;;
20627;SDS011;10473;42.734;24.258;2022-12-18T04:57:34;31.77;;;6.80;;
20627;SDS011;10473;42.734;24.258;2022-12-18T05:00:02;114.83;;;11.63;;
20627;SDS011;10473;42.734;24.258;2022-12-18T05:02:30;146.67;;;9.17;;
20627;SDS011;10473;42.734;24.258;2022-12-18T05:05:00;81.27;;;6.00;;
20627;SDS011;10473;42.734;24.258;2022-12-18T05:07:28;185.53;;;9.73;;
20627;SDS011;10473;42.734;24.258;2022-12-18T05:09:55;86.73;;;7.90;;
20627;SDS011;10473;42.734;24.258;2022-12-18T05:12:23;206.27;;;14.77;;
20627;SDS011;10473;42.734;24.258;2022-12-18T05:14:51;127.67;;;6.90;;
20627;SDS011;10473;42.734;24.258;2022-12-18T05:17:18;113.33;;;9.27;;
20627;SDS011;10473;42.734;24.258;2022-12-18T05:19:46;143.97;;;8.80;;
20627;SDS011;10473;42.734;24.258;2022-12-18T05:22:15;107.97;;;10.40;;
20627;SDS011;10473;42.734;24.258;2022-12-18T05:24:43;160.53;;;15.13;;
20627;SDS011;10473;42.734;24.258;2022-12-18T05:27:11;73.60;;;6.90;;
20627;SDS011;10473;42.734;24.258;2022-12-18T05:29:38;149.07;;;13.90;;
20627;SDS011;10473;42.734;24.258;2022-12-18T05:32:06;96.47;;;10.70;;
20627;SDS011;10473;42.734;24.258;2022-12-18T05:34:34;82.37;;;9.07;;
20627;SDS011;10473;42.734;24.258;2022-12-18T05:37:02;92.07;;;17.70;;
20627;SDS011;10473;42.734;24.258;2022-12-18T05:39:31;124.87;;;22.13;;
20627;SDS011;10473;42.734;24.258;2022-12-18T05:41:58;27.23;;;13.57;;
20627;SDS011;10473;42.734;24.258;2022-12-18T05:44:26;103.43;;;15.73;;
20627;SDS011;10473;42.734;24.258;2022-12-18T05:46:54;129.37;;;12.47;;
20627;SDS011;10473;42.734;24.258;2022-12-18T05:49:21;86.37;;;14.87;;
20627;SDS011;10473;42.734;24.258;2022-12-18T05:51:49;34.80;;;11.63;;
20627;SDS011;10473;42.734;24.258;2022-12-18T05:54:17;81.37;;;12.37;;
20627;SDS011;10473;42.734;24.258;2022-12-18T05:56:46;170.47;;;11.67;;
20627;SDS011;10473;42.734;24.258;2022-12-18T05:59:13;98.27;;;10.73;;
20627;SDS011;10473;42.734;24.258;2022-12-18T06:01:41;110.70;;;9.20;;
20627;SDS011;10473;42.734;24.258;2022-12-18T06:04:09;93.87;;;12.13;;
20627;SDS011;10473;42.734;24.258;2022-12-18T06:06:36;81.90;;;8.97;;
20627;SDS011;10473;42.734;24.258;2022-12-18T06:09:04;74.37;;;6.87;;
20627;SDS011;10473;42.734;24.258;2022-12-18T06:11:34;40.60;;;4.93;;
20627;SDS011;10473;42.734;24.258;2022-12-18T06:14:05;98.87;;;11.07;;
20627;SDS011;10473;42.734;24.258;2022-12-18T06:16:33;64.90;;;6.67;;
20627;SDS011;10473;42.734;24.258;2022-12-18T06:19:01;28.10;;;4.13;;
20627;SDS011;10473;42.734;24.258;2022-12-18T06:21:31;42.30;;;6.50;;
20627;SDS011;10473;42.734;24.258;2022-12-18T06:23:59;21.27;;;7.80;;
20627;SDS011;10473;42.734;24.258;2022-12-18T06:26:27;33.63;;;8.00;;
20627;SDS011;10473;42.734;24.258;2022-12-18T06:28:56;94.67;;;9.37;;
20627;SDS011;10473;42.734;24.258;2022-12-18T06:31:25;37.40;;;6.87;;
20627;SDS011;10473;42.734;24.258;2022-12-18T06:33:53;61.63;;;14.80;;
20627;SDS011;10473;42.734;24.258;2022-12-18T06:36:21;65.70;;;13.80;;
20627;SDS011;10473;42.734;24.258;2022-12-18T06:38:49;46.90;;;7.27;;
20627;SDS011;10473;42.734;24.258;2022-12-18T06:41:17;64.93;;;6.87;;
20627;SDS011;10473;42.734;24.258;2022-12-18T06:43:46;75.60;;;6.80;;
20627;SDS011;10473;42.734;24.258;2022-12-18T06:46:14;111.40;;;11.83;;
20627;SDS011;10473;42.734;24.258;2022-12-18T06:48:45;188.90;;;13.70;;
20627;SDS011;10473;42.734;24.258;2022-12-18T06:51:15;219.53;;;13.13;;
20627;SDS011;10473;42.734;24.258;2022-12-18T06:53:44;108.23;;;10.73;;
20627;SDS011;10473;42.734;24.258;2022-12-18T06:56:11;86.77;;;12.03;;
20627;SDS011;10473;42.734;24.258;2022-12-18T06:58:39;32.77;;;8.23;;
20627;SDS011;10473;42.734;24.258;2022-12-18T07:01:08;171.17;;;11.40;;
20627;SDS011;10473;42.734;24.258;2022-12-18T07:03:37;163.33;;;10.30;;
20627;SDS011;10473;42.734;24.258;2022-12-18T07:06:11;110.97;;;13.17;;
20627;SDS011;10473;42.734;24.258;2022-12-18T07:08:41;65.43;;;7.13;;
20627;SDS011;10473;42.734;24.258;2022-12-18T07:11:10;102.33;;;12.70;;
20627;SDS011;10473;42.734;24.258;2022-12-18T07:13:38;101.03;;;8.57;;
20627;SDS011;10473;42.734;24.258;2022-12-18T07:16:06;74.23;;;12.67;;
20627;SDS011;10473;42.734;24.258;2022-12-18T07:18:35;114.70;;;8.27;;
20627;SDS011;10473;42.734;24.258;2022-12-18T07:21:03;73.43;;;7.70;;
20627;SDS011;10473;42.734;24.258;2022-12-18T07:23:33;34.90;;;6.93;;
20627;SDS011;10473;42.734;24.258;2022-12-18T07:26:02;55.83;;;7.83;;
20627;SDS011;10473;42.734;24.258;2022-12-18T07:28:30;85.57;;;23.30;;
20627;SDS011;10473;42.734;24.258;2022-12-18T07:31:01;88.33;;;16.67;;
20627;SDS011;10473;42.734;24.258;2022-12-18T07:33:30;104.67;;;32.67;;
20627;SDS011;10473;42.734;24.258;2022-12-18T07:35:58;64.77;;;17.43;;
20627;SDS011;10473;42.734;24.258;2022-12-18T07:38:26;92.77;;;14.77;;
20627;SDS011;10473;42.734;24.258;2022-12-18T07:40:59;17.33;;;8.07;;
20627;SDS011;10473;42.734;24.258;2022-12-18T07:43:27;35.63;;;6.87;;
20627;SDS011;10473;42.734;24.258;2022-12-18T07:45:55;21.17;;;7.33;;
20627;SDS011;10473;42.734;24.258;2022-12-18T07:48:22;32.00;;;7.97;;
20627;SDS011;10473;42.734;24.258;2022-12-18T07:50:50;26.67;;;7.40;;
20627;SDS011;10473;42.734;24.258;2022-12-18T07:53:18;36.27;;;12.70;;
20627;SDS011;10473;42.734;24.258;2022-12-18T07:55:46;31.37;;;13.37;;
20627;SDS011;10473;42.734;24.258;2022-12-18T07:58:15;34.70;;;10.87;;
20627;SDS011;10473;42.734;24.258;2022-12-18T08:00:42;29.63;;;13.33;;
20627;SDS011;10473;42.734;24.258;2022-12-18T08:03:10;23.30;;;11.93;;
20627;SDS011;10473;42.734;24.258;2022-12-18T08:05:39;17.77;;;10.23;;
20627;SDS011;10473;42.734;24.258;2022-12-18T08:08:07;12.83;;;7.67;;
20627;SDS011;10473;42.734;24.258;2022-12-18T08:10:34;11.93;;;6.90;;
20627;SDS011;10473;42.734;24.258;2022-12-18T08:13:02;30.47;;;14.10;;
20627;SDS011;10473;42.734;24.258;2022-12-18T08:15:31;22.50;;;12.57;;
20627;SDS011;10473;42.734;24.258;2022-12-18T08:17:59;57.17;;;30.90;;
20627;SDS011;10473;42.734;24.258;2022-12-18T08:20:26;23.70;;;10.07;;
20627;SDS011;10473;42.734;24.258;2022-12-18T08:22:54;34.13;;;14.93;;
20627;SDS011;10473;42.734;24.258;2022-12-18T08:25:24;34.47;;;8.27;;
20627;SDS011;10473;42.734;24.258;2022-12-18T08:27:51;51.30;;;12.33;;
20627;SDS011;10473;42.734;24.258;2022-12-18T08:30:19;32.07;;;18.53;;
20627;SDS011;10473;42.734;24.258;2022-12-18T08:32:49;73.63;;;17.20;;
20627;SDS011;10473;42.734;24.258;2022-12-18T08:35:20;40.03;;;14.57;;
20627;SDS011;10473;42.734;24.258;2022-12-18T08:37:47;91.50;;;14.23;;
20627;SDS011;10473;42.734;24.258;2022-12-18T08:40:15;77.73;;;12.50;;
20627;SDS011;10473;42.734;24.258;2022-12-18T08:42:43;71.17;;;17.77;;
20627;SDS011;10473;42.734;24.258;2022-12-18T08:45:28;147.20;;;19.00;;
20627;SDS011;10473;42.734;24.258;2022-12-18T08:47:58;81.00;;;10.90;;
20627;SDS011;10473;42.734;24.258;2022-12-18T08:50:26;129.47;;;10.93;;
20627;SDS011;10473;42.734;24.258;2022-12-18T08:52:54;87.70;;;9.33;;
20627;SDS011;10473;42.734;24.258;2022-12-18T08:55:22;64.77;;;10.00;;
20627;SDS011;10473;42.734;24.258;2022-12-18T08:57:50;82.97;;;9.60;;
20627;SDS011;10473;42.734;24.258;2022-12-18T09:00:19;80.77;;;8.93;;
20627;SDS011;10473;42.734;24.258;2022-12-18T09:02:47;78.60;;;9.97;;
20627;SDS011;10473;42.734;24.258;2022-12-18T09:05:16;116.53;;;10.97;;
20627;SDS011;10473;42.734;24.258;2022-12-18T09:07:44;56.83;;;9.53;;
20627;SDS011;10473;42.734;24.258;2022-12-18T09:10:11;58.73;;;10.07;;
20627;SDS011;10473;42.734;24.258;2022-12-18T09:12:39;49.50;;;7.83;;
20627;SDS011;10473;42.734;24.258;2022-12-18T09:15:07;74.60;;;9.97;;
20627;SDS011;10473;42.734;24.258;2022-12-18T09:17:53;47.90;;;7.30;;
20627;SDS011;10473;42.734;24.258;2022-12-18T09:20:22;22.93;;;7.07;;
20627;SDS011;10473;42.734;24.258;2022-12-18T09:22:50;94.33;;;10.27;;
20627;SDS011;10473;42.734;24.258;2022-12-18T09:25:18;34.77;;;9.17;;
20627;SDS011;10473;42.734;24.258;2022-12-18T09:27:46;57.50;;;9.73;;
20627;SDS011;10473;42.734;24.258;2022-12-18T09:30:14;118.07;;;10.13;;
20627;SDS011;10473;42.734;24.258;2022-12-18T09:32:42;96.90;;;10.67;;
20627;SDS011;10473;42.734;24.258;2022-12-18T09:35:10;36.57;;;7.70;;
20627;SDS011;10473;42.734;24.258;2022-12-18T09:37:39;73.97;;;15.90;;
20627;SDS011;10473;42.734;24.258;2022-12-18T09:40:12;44.77;;;13.03;;
20627;SDS011;10473;42.734;24.258;2022-12-18T09:42:40;58.20;;;10.07;;
20627;SDS011;10473;42.734;24.258;2022-12-18T09:45:15;27.13;;;8.97;;
20627;SDS011;10473;42.734;24.258;2022-12-18T09:47:44;53.53;;;8.57;;
20627;SDS011;10473;42.734;24.258;2022-12-18T09:50:17;32.93;;;8.17;;
20627;SDS011;10473;42.734;24.258;2022-12-18T09:52:58;60.77;;;8.67;;
20627;SDS011;10473;42.734;24.258;2022-12-18T09:55:33;55.53;;;7.93;;
20627;SDS011;10473;42.734;24.258;2022-12-18T09:58:05;11.17;;;6.83;;
20627;SDS011;10473;42.734;24.258;2022-12-18T10:00:42;14.90;;;6.37;;
20627;SDS011;10473;42.734;24.258;2022-12-18T10:03:11;35.10;;;9.13;;
20627;SDS011;10473;42.734;24.258;2022-12-18T10:05:42;34.23;;;12.17;;
20627;SDS011;10473;42.734;24.258;2022-12-18T10:08:18;28.47;;;11.97;;
20627;SDS011;10473;42.734;24.258;2022-12-18T10:10:56;37.23;;;9.13;;
20627;SDS011;10473;42.734;24.258;2022-12-18T10:13:29;64.67;;;9.27;;
20627;SDS011;10473;42.734;24.258;2022-12-18T10:16:08;30.60;;;9.10;;
20627;SDS011;10473;42.734;24.258;2022-12-18T10:18:54;41.67;;;10.97;;
20627;SDS011;10473;42.734;24.258;2022-12-18T10:21:30;54.60;;;10.30;;
20627;SDS011;10473;42.734;24.258;2022-12-18T10:24:08;25.20;;;7.83;;
20627;SDS011;10473;42.734;24.258;2022-12-18T10:26:43;33.67;;;9.27;;
20627;SDS011;10473;42.734;24.258;2022-12-18T10:29:12;31.37;;;10.07;;
20627;SDS011;10473;42.734;24.258;2022-12-18T10:31:41;21.10;;;11.97;;
20627;SDS011;10473;42.734;24.258;2022-12-18T10:34:10;41.93;;;14.03;;
20627;SDS011;10473;42.734;24.258;2022-12-18T10:36:44;43.70;;;13.17;;
20627;SDS011;10473;42.734;24.258;2022-12-18T10:39:17;24.43;;;12.13;;
20627;SDS011;10473;42.734;24.258;2022-12-18T10:41:51;31.03;;;13.27;;
20627;SDS011;10473;42.734;24.258;2022-12-18T10:44:19;40.37;;;16.40;;
20627;SDS011;10473;42.734;24.258;2022-12-18T10:46:49;33.87;;;14.77;;
20627;SDS011;10473;42.734;24.258;2022-12-18T10:49:22;48.37;;;15.27;;
20627;SDS011;10473;42.734;24.258;2022-12-18T10:52:03;19.77;;;10.60;;
20627;SDS011;10473;42.734;24.258;2022-12-18T10:54:34;50.33;;;14.67;;
20627;SDS011;10473;42.734;24.258;2022-12-18T10:57:16;48.43;;;18.43;;
20627;SDS011;10473;42.734;24.258;2022-12-18T10:59:56;51.97;;;14.40;;
20627;SDS011;10473;42.734;24.258;2022-12-18T11:02:26;43.07;;;11.37;;
20627;SDS011;10473;42.734;24.258;2022-12-18T11:05:00;41.17;;;8.83;;
20627;SDS011;10473;42.734;24.258;2022-12-18T11:07:37;13.67;;;9.53;;
20627;SDS011;10473;42.734;24.258;2022-12-18T11:10:17;44.23;;;10.60;;
20627;SDS011;10473;42.734;24.258;2022-12-18T11:12:45;21.13;;;9.70;;
20627;SDS011;10473;42.734;24.258;2022-12-18T11:15:15;65.93;;;21.13;;
20627;SDS011;10473;42.734;24.258;2022-12-18T11:17:47;24.07;;;13.90;;
20627;SDS011;10473;42.734;24.258;2022-12-18T11:20:20;32.77;;;15.27;;
20627;SDS011;10473;42.734;24.258;2022-12-18T11:22:54;33.27;;;12.10;;
20627;SDS011;10473;42.734;24.258;2022-12-18T11:25:29;45.37;;;14.30;;
20627;SDS011;10473;42.734;24.258;2022-12-18T11:27:58;46.07;;;11.67;;
20627;SDS011;10473;42.734;24.258;2022-12-18T11:30:28;21.03;;;10.83;;
20627;SDS011;10473;42.734;24.258;2022-12-18T11:33:02;40.10;;;11.57;;
20627;SDS011;10473;42.734;24.258;2022-12-18T11:35:35;33.97;;;11.03;;
20627;SDS011;10473;42.734;24.258;2022-12-18T11:38:12;17.77;;;10.07;;
20627;SDS011;10473;42.734;24.258;2022-12-18T11:40:50;24.50;;;10.33;;
20627;SDS011;10473;42.734;24.258;2022-12-18T11:43:26;21.30;;;11.50;;
20627;SDS011;10473;42.734;24.258;2022-12-18T11:45:59;51.03;;;10.90;;
20627;SDS011;10473;42.734;24.258;2022-12-18T11:48:32;36.00;;;10.90;;
20627;SDS011;10473;42.734;24.258;2022-12-18T11:51:09;22.53;;;13.90;;
20627;SDS011;10473;42.734;24.258;2022-12-18T11:53:45;26.80;;;14.53;;
20627;SDS011;10473;42.734;24.258;2022-12-18T11:56:21;25.70;;;14.03;;
20627;SDS011;10473;42.734;24.258;2022-12-18T11:58:59;27.10;;;13.93;;
20627;SDS011;10473;42.734;24.258;2022-12-18T12:01:40;37.43;;;14.73;;
20627;SDS011;10473;42.734;24.258;2022-12-18T12:04:22;24.60;;;9.47;;
20627;SDS011;10473;42.734;24.258;2022-12-18T12:07:06;24.60;;;12.03;;
20627;SDS011;10473;42.734;24.258;2022-12-18T12:09:44;25.57;;;9.70;;
20627;SDS011;10473;42.734;24.258;2022-12-18T12:12:26;48.50;;;18.40;;
20627;SDS011;10473;42.734;24.258;2022-12-18T12:15:13;19.13;;;11.83;;
20627;SDS011;10473;42.734;24.258;2022-12-18T12:17:50;18.07;;;10.87;;
20627;SDS011;10473;42.734;24.258;2022-12-18T12:20:27;26.70;;;8.80;;
20627;SDS011;10473;42.734;24.258;2022-12-18T12:23:12;32.77;;;13.10;;
20627;SDS011;10473;42.734;24.258;2022-12-18T12:25:48;27.27;;;13.37;;
20627;SDS011;10473;42.734;24.258;2022-12-18T12:28:25;26.03;;;16.83;;
20627;SDS011;10473;42.734;24.258;2022-12-18T12:31:06;17.17;;;8.20;;
20627;SDS011;10473;42.734;24.258;2022-12-18T12:33:43;19.50;;;6.83;;
20627;SDS011;10473;42.734;24.258;2022-12-18T12:36:21;15.63;;;9.20;;
20627;SDS011;10473;42.734;24.258;2022-12-18T12:38:59;33.83;;;16.43;;
20627;SDS011;10473;42.734;24.258;2022-12-18T12:41:33;29.87;;;13.80;;
20627;SDS011;10473;42.734;24.258;2022-12-18T12:44:22;24.90;;;8.50;;
20627;SDS011;10473;42.734;24.258;2022-12-18T12:46:58;27.00;;;9.80;;
20627;SDS011;10473;42.734;24.258;2022-12-18T12:49:30;17.07;;;9.50;;
20627;SDS011;10473;42.734;24.258;2022-12-18T12:52:00;18.83;;;9.77;;
20627;SDS011;10473;42.734;24.258;2022-12-18T12:54:33;30.70;;;10.07;;
20627;SDS011;10473;42.734;24.258;2022-12-18T12:57:02;23.30;;;9.47;;
20627;SDS011;10473;42.734;24.258;2022-12-18T12:59:40;17.47;;;9.67;;
20627;SDS011;10473;42.734;24.258;2022-12-18T13:02:18;14.17;;;8.17;;
20627;SDS011;10473;42.734;24.258;2022-12-18T13:04:51;19.50;;;9.97;;
20627;SDS011;10473;42.734;24.258;2022-12-18T13:07:25;33.30;;;10.07;;
20627;SDS011;10473;42.734;24.258;2022-12-18T13:12:53;28.20;;;9.97;;
20627;SDS011;10473;42.734;24.258;2022-12-18T13:15:28;19.80;;;10.53;;
20627;SDS011;10473;42.734;24.258;2022-12-18T13:18:15;15.03;;;8.83;;
20627;SDS011;10473;42.734;24.258;2022-12-18T13:20:49;17.77;;;10.33;;
20627;SDS011;10473;42.734;24.258;2022-12-18T13:26:29;19.37;;;10.03;;
20627;SDS011;10473;42.734;24.258;2022-12-18T13:28:58;21.03;;;10.97;;
20627;SDS011;10473;42.734;24.258;2022-12-18T13:34:28;24.27;;;11.40;;
20627;SDS011;10473;42.734;24.258;2022-12-18T13:36:57;24.77;;;10.37;;
20627;SDS011;10473;42.734;24.258;2022-12-18T13:40:05;18.00;;;10.80;;
20627;SDS011;10473;42.734;24.258;2022-12-18T13:43:26;21.43;;;12.17;;
20627;SDS011;10473;42.734;24.258;2022-12-18T13:46:00;22.37;;;11.43;;
20627;SDS011;10473;42.734;24.258;2022-12-18T13:48:34;15.30;;;8.80;;
20627;SDS011;10473;42.734;24.258;2022-12-18T13:51:05;20.63;;;10.17;;
20627;SDS011;10473;42.734;24.258;2022-12-18T13:53:36;29.50;;;13.53;;
20627;SDS011;10473;42.734;24.258;2022-12-18T13:56:09;23.37;;;12.53;;
20627;SDS011;10473;42.734;24.258;2022-12-18T13:58:43;33.27;;;17.47;;
20627;SDS011;10473;42.734;24.258;2022-12-18T14:01:21;36.87;;;19.70;;
20627;SDS011;10473;42.734;24.258;2022-12-18T14:06:49;34.83;;;15.70;;
20627;SDS011;10473;42.734;24.258;2022-12-18T14:09:20;31.30;;;9.10;;
20627;SDS011;10473;42.734;24.258;2022-12-18T14:11:51;17.10;;;8.37;;
20627;SDS011;10473;42.734;24.258;2022-12-18T14:14:45;18.70;;;10.67;;
20627;SDS011;10473;42.734;24.258;2022-12-18T14:17:18;20.23;;;9.87;;
20627;SDS011;10473;42.734;24.258;2022-12-18T14:19:48;22.57;;;10.83;;
20627;SDS011;10473;42.734;24.258;2022-12-18T14:22:20;25.00;;;13.70;;
20627;SDS011;10473;42.734;24.258;2022-12-18T14:25:05;34.33;;;11.87;;
20627;SDS011;10473;42.734;24.258;2022-12-18T14:27:42;31.43;;;17.10;;
20627;SDS011;10473;42.734;24.258;2022-12-18T14:30:24;30.17;;;13.73;;
20627;SDS011;10473;42.734;24.258;2022-12-18T14:33:00;25.37;;;16.50;;
20627;SDS011;10473;42.734;24.258;2022-12-18T14:35:29;40.87;;;19.93;;
20627;SDS011;10473;42.734;24.258;2022-12-18T14:38:15;21.17;;;11.77;;
20627;SDS011;10473;42.734;24.258;2022-12-18T14:40:51;24.47;;;11.67;;
20627;SDS011;10473;42.734;24.258;2022-12-18T14:43:20;14.77;;;10.97;;
20627;SDS011;10473;42.734;24.258;2022-12-18T14:45:49;18.80;;;9.90;;
20627;SDS011;10473;42.734;24.258;2022-12-18T14:48:18;16.87;;;10.70;;
20627;SDS011;10473;42.734;24.258;2022-12-18T14:50:54;23.93;;;9.60;;
20627;SDS011;10473;42.734;24.258;2022-12-18T14:53:27;25.70;;;14.47;;